createdAt,value
2022-11-14T00:00:47.212Z,7.38
2022-11-14T00:03:32.636Z,7.43
2022-11-14T00:06:17.609Z,7.22
2022-11-14T00:09:03.391Z,7.53
2022-11-14T00:11:48.845Z,7.53
2022-11-14T00:14:34.181Z,7.66
2022-11-14T00:17:19.324Z,7.54
2022-11-14T00:20:06.814Z,7.41
2022-11-14T00:22:52.359Z,7.48
2022-11-14T00:25:38.189Z,7.57
2022-11-14T00:28:23.394Z,7.60
2022-11-14T00:31:10.327Z,7.61
2022-11-14T00:33:55.887Z,7.72
2022-11-14T00:36:40.958Z,8.00
2022-11-14T00:39:26.369Z,8.11
2022-11-14T00:42:11.606Z,7.98
2022-11-14T00:44:56.797Z,8.01
2022-11-14T00:47:42.280Z,8.03
2022-11-14T00:50:27.457Z,7.98
2022-11-14T00:53:13.298Z,7.90
2022-11-14T00:55:58.906Z,7.81
2022-11-14T00:58:44.992Z,7.71
2022-11-14T01:01:30.198Z,7.81
2022-11-14T01:04:15.421Z,7.83
2022-11-14T01:07:00.764Z,7.79
2022-11-14T01:09:45.886Z,7.86
2022-11-14T01:12:31.069Z,7.83
2022-11-14T01:15:16.555Z,7.74
2022-11-14T01:18:01.656Z,7.62
2022-11-14T01:20:48.025Z,7.68
2022-11-14T01:23:33.320Z,7.73
2022-11-14T01:26:18.451Z,7.67
2022-11-14T01:29:03.549Z,7.91
2022-11-14T01:31:49.449Z,7.82
2022-11-14T01:34:34.644Z,7.80
2022-11-14T01:37:21.017Z,7.58
2022-11-14T01:40:06.897Z,7.72
2022-11-14T01:43:18.665Z,7.66
2022-11-14T01:46:14.659Z,7.76
2022-11-14T01:49:24.082Z,7.64
2022-11-14T01:52:19.831Z,7.67
2022-11-14T01:55:08.108Z,7.75
2022-11-14T01:57:53.642Z,7.76
2022-11-14T02:00:39.410Z,7.68
2022-11-14T02:03:25.071Z,7.64
2022-11-14T02:06:14.799Z,7.82
2022-11-14T02:09:04.437Z,7.68
2022-11-14T02:11:51.914Z,7.61
2022-11-14T02:14:38.543Z,7.85
2022-11-14T02:17:30.015Z,7.92
2022-11-14T02:20:24.807Z,7.81
2022-11-14T02:23:12.332Z,7.63
2022-11-14T02:25:58.124Z,7.69
2022-11-14T02:28:43.156Z,7.66
2022-11-14T02:31:28.629Z,7.77
2022-11-14T02:34:16.678Z,7.94
2022-11-14T02:37:02.023Z,7.72
2022-11-14T02:39:48.230Z,7.79
2022-11-14T02:42:33.789Z,7.85
2022-11-14T02:45:21.020Z,8.04
2022-11-14T02:48:06.595Z,7.91
2022-11-14T02:50:52.063Z,7.99
2022-11-14T02:53:37.326Z,7.91
2022-11-14T02:56:25.177Z,7.87
2022-11-14T02:59:10.332Z,7.80
2022-11-14T03:01:55.722Z,7.79
2022-11-14T03:04:40.884Z,7.94
2022-11-14T03:07:26.241Z,8.11
2022-11-14T03:10:12.014Z,8.21
2022-11-14T03:12:58.138Z,7.86
2022-11-14T03:15:43.483Z,7.86
2022-11-14T03:18:29.262Z,7.71
2022-11-14T03:21:20.261Z,7.88
2022-11-14T03:24:06.005Z,7.93
2022-11-14T03:26:51.336Z,7.92
2022-11-14T03:29:36.616Z,7.64
2022-11-14T03:32:21.733Z,7.95
2022-11-14T03:35:07.564Z,7.94
2022-11-14T03:37:56.398Z,7.91
2022-11-14T03:40:44.742Z,7.78
2022-11-14T03:43:32.956Z,7.61
2022-11-14T03:46:18.168Z,7.58
2022-11-14T03:49:04.123Z,7.64
2022-11-14T03:51:50.566Z,7.61
2022-11-14T03:54:35.559Z,7.54
2022-11-14T03:57:20.673Z,7.72
2022-11-14T04:00:11.818Z,7.49
2022-11-14T04:02:57.564Z,7.24
2022-11-14T04:05:46.282Z,6.87
2022-11-14T04:08:32.862Z,7.34
2022-11-14T04:11:19.183Z,7.30
2022-11-14T04:14:04.921Z,7.59
2022-11-14T04:16:50.292Z,7.34
2022-11-14T04:19:35.348Z,7.43
2022-11-14T04:22:20.672Z,7.38
2022-11-14T04:25:07.588Z,7.62
2022-11-14T04:27:52.934Z,7.60
2022-11-14T04:30:38.843Z,7.55
2022-11-14T04:33:23.952Z,7.21
2022-11-14T04:36:12.173Z,7.24
2022-11-14T04:38:57.665Z,7.19
2022-11-14T04:41:43.118Z,7.16
2022-11-14T04:44:28.359Z,7.21
2022-11-14T04:47:13.392Z,7.28
2022-11-14T04:49:58.944Z,7.22
2022-11-14T04:52:44.141Z,6.63
2022-11-14T04:55:29.474Z,6.84
2022-11-14T04:58:14.848Z,7.08
2022-11-14T05:01:00.572Z,6.72
2022-11-14T05:03:46.201Z,6.88
2022-11-14T05:06:31.613Z,6.96
2022-11-14T05:09:17.016Z,7.32
2022-11-14T05:12:03.801Z,7.01
2022-11-14T05:14:49.109Z,7.20
2022-11-14T05:17:35.005Z,7.03
2022-11-14T05:20:20.357Z,7.07
2022-11-14T05:23:05.796Z,6.90
2022-11-14T05:26:01.906Z,7.42
2022-11-14T05:28:47.201Z,7.14
2022-11-14T05:31:32.636Z,7.56
2022-11-14T05:34:17.867Z,7.26
2022-11-14T05:37:04.057Z,7.07
2022-11-14T05:39:49.265Z,7.02
2022-11-14T05:42:34.863Z,7.24
2022-11-14T05:45:20.313Z,7.13
2022-11-14T05:48:06.002Z,7.18
2022-11-14T05:50:55.975Z,7.26
2022-11-14T05:53:41.549Z,7.19
2022-11-14T05:56:27.892Z,7.24
2022-11-14T05:59:13.617Z,7.26
2022-11-14T06:01:58.991Z,7.23
2022-11-14T06:04:44.287Z,7.19
2022-11-14T06:07:31.178Z,7.26
2022-11-14T06:10:16.852Z,7.23
2022-11-14T06:13:02.932Z,7.24
2022-11-14T06:15:48.015Z,7.14
2022-11-14T06:18:34.222Z,7.21
2022-11-14T06:21:21.705Z,7.25
2022-11-14T06:24:09.570Z,7.04
2022-11-14T06:26:54.704Z,7.37
2022-11-14T06:29:40.071Z,7.22
2022-11-14T06:32:25.586Z,6.87
2022-11-14T06:35:11.085Z,7.01
2022-11-14T06:37:56.639Z,7.21
2022-11-14T06:40:41.788Z,7.72
2022-11-14T06:43:29.649Z,7.34
2022-11-14T06:46:18.208Z,7.63
2022-11-14T06:49:03.668Z,7.40
2022-11-14T06:51:49.081Z,7.15
2022-11-14T06:54:34.364Z,7.09
2022-11-14T06:57:19.663Z,7.11
2022-11-14T07:00:05.739Z,7.27
2022-11-14T07:02:51.121Z,7.27
2022-11-14T07:05:36.520Z,7.31
2022-11-14T07:08:22.089Z,7.12
2022-11-14T07:11:12.599Z,6.97
2022-11-14T07:14:03.622Z,7.26
2022-11-14T07:16:49.467Z,7.32
2022-11-14T07:19:34.969Z,7.04
2022-11-14T07:22:20.479Z,7.60
2022-11-14T07:25:06.536Z,7.50
2022-11-14T07:27:51.624Z,7.34
2022-11-14T07:30:37.072Z,7.24
2022-11-14T07:33:22.492Z,7.28
2022-11-14T07:36:09.084Z,7.38
2022-11-14T07:38:54.605Z,7.76
2022-11-14T07:41:40.843Z,7.45
2022-11-14T07:44:27.160Z,7.69
2022-11-14T07:47:12.404Z,7.83
2022-11-14T07:49:57.648Z,7.91
2022-11-14T07:52:50.472Z,7.84
2022-11-14T07:55:36.925Z,7.86
2022-11-14T07:58:22.441Z,8.07
2022-11-14T08:01:09.954Z,7.91
2022-11-14T08:03:55.208Z,8.01
2022-11-14T08:06:40.403Z,8.12
2022-11-14T08:09:26.187Z,7.95
2022-11-14T08:12:13.304Z,8.04
2022-11-14T08:14:58.563Z,8.67
2022-11-14T08:17:44.164Z,8.11
2022-11-14T08:20:29.744Z,8.18
2022-11-14T08:23:17.623Z,7.81
2022-11-14T08:26:02.980Z,7.81
2022-11-14T08:28:48.347Z,7.78
2022-11-14T08:31:33.650Z,7.90
2022-11-14T08:34:18.976Z,7.76
2022-11-14T08:37:04.517Z,7.80
2022-11-14T08:39:49.909Z,8.03
2022-11-14T08:42:35.296Z,8.29
2022-11-14T08:45:20.415Z,8.30
2022-11-14T08:48:06.232Z,8.18
2022-11-14T08:50:51.607Z,8.39
2022-11-14T08:53:49.264Z,8.29
2022-11-14T08:56:34.820Z,8.40
2022-11-14T08:59:20.260Z,8.49
2022-11-14T09:02:05.473Z,8.33
2022-11-14T09:04:50.970Z,8.23
2022-11-14T09:07:37.167Z,8.24
2022-11-14T09:10:22.560Z,8.38
2022-11-14T09:13:07.999Z,8.66
2022-11-14T09:15:53.347Z,8.49
2022-11-14T09:18:38.705Z,8.35
2022-11-14T09:21:24.839Z,8.17
2022-11-14T09:24:10.297Z,8.44
2022-11-14T09:26:57.189Z,8.60
2022-11-14T09:29:42.775Z,8.57
2022-11-14T09:32:30.784Z,8.49
2022-11-14T09:35:16.540Z,8.59
2022-11-14T09:38:04.674Z,8.65
2022-11-14T09:40:49.961Z,8.53
2022-11-14T09:44:10.016Z,8.49
2022-11-14T09:47:03.012Z,8.44
2022-11-14T09:49:51.513Z,8.55
2022-11-14T09:52:40.456Z,8.83
2022-11-14T09:55:37.265Z,8.71
2022-11-14T09:58:23.247Z,8.62
2022-11-14T10:01:45.925Z,8.63
2022-11-14T10:05:02.506Z,8.87
2022-11-14T10:08:02.312Z,8.95
2022-11-14T10:10:55.961Z,8.99
2022-11-14T10:14:08.040Z,9.35
2022-11-14T10:17:12.201Z,9.29
2022-11-14T10:20:20.272Z,9.43
2022-11-14T10:23:24.218Z,9.36
2022-11-14T10:26:23.302Z,9.69
2022-11-14T10:29:40.763Z,9.85
2022-11-14T10:32:46.714Z,9.78
2022-11-14T10:35:39.447Z,9.85
2022-11-14T10:38:32.163Z,9.91
2022-11-14T10:41:41.935Z,9.95
2022-11-14T10:44:30.969Z,10.03
2022-11-14T10:47:21.489Z,10.34
2022-11-14T10:50:25.634Z,10.52
2022-11-14T10:53:24.871Z,10.51
2022-11-14T10:56:15.263Z,10.58
2022-11-14T10:59:00.504Z,11.11
2022-11-14T11:01:54.737Z,11.03
2022-11-14T11:04:43.878Z,11.33
2022-11-14T11:07:48.588Z,11.00
2022-11-14T11:10:57.701Z,10.59
2022-11-14T11:13:55.649Z,10.81
2022-11-14T11:16:42.261Z,10.76
2022-11-14T11:19:28.041Z,10.70
2022-11-14T11:22:27.549Z,10.89
2022-11-14T11:25:33.011Z,10.60
2022-11-14T11:28:26.940Z,10.55
2022-11-14T11:31:12.365Z,10.46
2022-11-14T11:34:03.287Z,10.58
2022-11-14T11:36:58.567Z,10.72
2022-11-14T11:39:57.903Z,10.46
2022-11-14T11:45:55.601Z,10.70
2022-11-14T11:48:41.077Z,10.75
2022-11-14T11:51:27.313Z,10.65
2022-11-14T11:54:19.562Z,10.50
2022-11-14T11:57:21.726Z,10.27
2022-11-14T12:00:16.756Z,10.66
2022-11-14T12:03:02.407Z,10.47
2022-11-14T12:05:57.029Z,10.29
2022-11-14T12:09:10.055Z,10.26
2022-11-14T12:12:01.375Z,10.14
2022-11-14T12:15:11.403Z,10.15
2022-11-14T12:18:15.860Z,10.14
2022-11-14T12:21:32.425Z,9.92
2022-11-14T12:24:47.507Z,9.78
2022-11-14T12:28:04.294Z,9.96
2022-11-14T12:30:53.568Z,9.76
2022-11-14T12:33:47.602Z,9.91
2022-11-14T12:36:34.909Z,9.77
2022-11-14T12:39:30.142Z,9.66
2022-11-14T12:42:20.726Z,9.59
2022-11-14T12:45:40.258Z,9.59
2022-11-14T12:48:25.277Z,9.56
2022-11-14T12:51:25.525Z,9.58
2022-11-14T12:54:42.856Z,9.38
2022-11-14T12:57:57.382Z,9.60
2022-11-14T13:00:45.516Z,9.63
2022-11-14T13:03:59.592Z,9.39
2022-11-14T13:07:29.773Z,9.69
2022-11-14T13:10:44.609Z,9.59
2022-11-14T13:13:48.444Z,9.71
2022-11-14T13:16:52.352Z,9.61
2022-11-14T13:20:05.090Z,9.60
2022-11-14T13:22:50.335Z,9.65
2022-11-14T13:25:35.765Z,9.73
2022-11-14T13:28:45.439Z,9.63
2022-11-14T13:31:50.035Z,9.57
2022-11-14T13:34:54.394Z,9.73
2022-11-14T13:37:48.403Z,9.80
2022-11-14T13:40:59.452Z,9.97
2022-11-14T13:43:53.605Z,9.95
2022-11-14T13:46:50.613Z,10.02
2022-11-14T13:49:59.221Z,10.04
2022-11-14T13:52:47.716Z,9.75
2022-11-14T13:55:45.229Z,10.24
2022-11-14T13:59:21.060Z,10.27
2022-11-14T14:02:52.099Z,10.24
2022-11-14T14:06:12.740Z,10.09
2022-11-14T14:08:57.708Z,10.26
2022-11-14T14:12:15.387Z,10.21
2022-11-14T14:15:38.070Z,10.21
2022-11-14T14:18:40.510Z,9.99
2022-11-14T14:21:40.389Z,10.05
2022-11-14T14:24:28.143Z,9.98
2022-11-14T14:27:24.009Z,10.11
2022-11-14T14:30:14.620Z,10.15
2022-11-14T14:33:14.464Z,10.31
2022-11-14T14:35:59.783Z,10.28
2022-11-14T14:38:45.729Z,10.12
2022-11-14T14:41:32.377Z,9.95
2022-11-14T14:44:19.711Z,9.95
2022-11-14T14:47:43.772Z,10.15
2022-11-14T14:50:40.771Z,10.11
2022-11-14T14:53:34.958Z,9.88
2022-11-14T14:56:22.709Z,9.93
2022-11-14T14:59:19.675Z,10.14
2022-11-14T15:02:16.329Z,10.04
2022-11-14T15:05:02.797Z,9.94
2022-11-14T15:07:50.013Z,10.12
2022-11-14T15:10:35.412Z,9.93
2022-11-14T15:13:22.820Z,10.14
2022-11-14T15:16:09.211Z,10.21
2022-11-14T15:18:56.604Z,10.24
2022-11-14T15:21:43.188Z,10.32
2022-11-14T15:24:28.372Z,10.07
2022-11-14T15:27:19.224Z,10.17
2022-11-14T15:30:07.402Z,10.35
2022-11-14T15:32:55.014Z,10.41
2022-11-14T15:35:41.591Z,10.22
2022-11-14T15:41:35.825Z,10.18
2022-11-14T15:44:34.405Z,10.24
2022-11-14T15:47:25.583Z,10.36
2022-11-14T15:50:13.888Z,10.42
2022-11-14T15:53:14.576Z,10.39
2022-11-14T15:55:59.558Z,10.36
2022-11-14T15:58:49.375Z,10.08
2022-11-14T16:01:37.645Z,9.99
2022-11-14T16:04:32.177Z,10.06
2022-11-14T16:07:18.103Z,10.03
2022-11-14T16:10:03.573Z,10.03
2022-11-14T16:12:52.392Z,10.06
2022-11-14T16:15:38.479Z,10.09
2022-11-14T16:18:23.945Z,10.66
2022-11-14T16:21:16.784Z,10.43
2022-11-14T16:24:01.942Z,10.54
2022-11-14T16:26:50.392Z,10.44
2022-11-14T16:29:35.563Z,10.14
2022-11-14T16:32:23.263Z,10.16
2022-11-14T16:35:29.125Z,10.61
2022-11-14T16:38:14.994Z,10.42
2022-11-14T16:41:02.776Z,10.25
2022-11-14T16:43:47.885Z,10.21
2022-11-14T16:46:33.215Z,10.44
2022-11-14T16:49:19.890Z,10.26
2022-11-14T16:52:08.390Z,10.49
2022-11-14T16:54:54.497Z,10.22
2022-11-14T16:57:40.657Z,10.15
2022-11-14T17:00:27.577Z,10.25
2022-11-14T17:03:13.059Z,10.28
2022-11-14T17:05:58.320Z,10.34
2022-11-14T17:08:43.783Z,10.69
2022-11-14T17:11:28.926Z,10.56
2022-11-14T17:14:14.534Z,10.33
2022-11-14T17:17:02.691Z,10.33
2022-11-14T17:19:48.230Z,10.55
2022-11-14T17:22:33.542Z,10.35
2022-11-14T17:25:19.035Z,10.48
2022-11-14T17:28:04.420Z,10.50
2022-11-14T17:30:50.768Z,10.38
2022-11-14T17:33:36.867Z,10.32
2022-11-14T17:36:23.250Z,10.55
2022-11-14T17:39:08.721Z,10.24
2022-11-14T17:41:54.166Z,10.65
2022-11-14T17:44:39.736Z,10.27
2022-11-14T17:47:24.828Z,10.45
2022-11-14T17:50:10.629Z,10.30
2022-11-14T17:52:55.867Z,10.31
2022-11-14T17:55:41.053Z,10.34
2022-11-14T17:58:30.740Z,10.45
2022-11-14T18:01:19.170Z,10.29
2022-11-14T18:04:06.340Z,10.16
2022-11-14T18:06:52.873Z,10.33
2022-11-14T18:09:39.706Z,10.13
2022-11-14T18:12:24.881Z,10.27
2022-11-14T18:15:10.307Z,10.29
2022-11-14T18:17:55.864Z,10.40
2022-11-14T18:20:41.051Z,10.41
2022-11-14T18:23:26.242Z,10.45
2022-11-14T18:26:16.788Z,10.38
2022-11-14T18:29:02.265Z,10.40
2022-11-14T18:31:48.231Z,10.90
2022-11-14T18:34:33.232Z,10.93
2022-11-14T18:37:18.347Z,10.66
2022-11-14T18:40:04.144Z,10.87
2022-11-14T18:42:49.250Z,10.83
2022-11-14T18:45:34.922Z,10.89
2022-11-14T18:48:20.152Z,10.64
2022-11-14T18:51:12.322Z,10.83
2022-11-14T18:53:59.294Z,11.08
2022-11-14T18:56:45.213Z,11.00
2022-11-14T18:59:30.333Z,10.74
2022-11-14T19:02:15.530Z,10.79
2022-11-14T19:05:01.071Z,10.67
2022-11-14T19:07:47.011Z,10.55
2022-11-14T19:10:32.420Z,10.56
2022-11-14T19:13:17.527Z,10.80
2022-11-14T19:16:07.655Z,10.80
2022-11-14T19:18:54.598Z,10.83
2022-11-14T19:21:40.631Z,10.77
2022-11-14T19:24:27.194Z,10.77
2022-11-14T19:27:13.942Z,10.88
2022-11-14T19:29:58.924Z,10.76
2022-11-14T19:32:44.343Z,11.03
2022-11-14T19:35:29.562Z,10.81
2022-11-14T19:38:14.719Z,10.81
2022-11-14T19:41:09.057Z,10.70
2022-11-14T19:43:55.512Z,10.69
2022-11-14T19:46:44.340Z,10.76
2022-11-14T19:49:32.845Z,10.79
2022-11-14T19:52:18.438Z,10.98
2022-11-14T19:55:04.046Z,10.87
2022-11-14T19:57:49.403Z,10.97
2022-11-14T20:00:34.531Z,10.80
2022-11-14T20:03:21.678Z,10.86
2022-11-14T20:06:18.247Z,11.02
2022-11-14T20:09:08.767Z,10.86
2022-11-14T20:11:53.848Z,10.99
2022-11-14T20:14:39.007Z,10.74
2022-11-14T20:17:24.263Z,10.75
2022-11-14T20:20:10.839Z,10.77
2022-11-14T20:22:56.214Z,10.96
2022-11-14T20:25:41.592Z,10.76
2022-11-14T20:28:27.024Z,10.83
2022-11-14T20:31:17.758Z,10.79
2022-11-14T20:34:02.741Z,10.97
2022-11-14T20:39:54.085Z,11.14
2022-11-14T20:42:39.323Z,10.96
2022-11-14T20:45:25.212Z,10.97
2022-11-14T20:48:12.425Z,11.01
2022-11-14T20:51:10.485Z,11.20
2022-11-14T20:53:56.140Z,11.11
2022-11-14T20:56:41.598Z,11.62
2022-11-14T20:59:27.173Z,11.07
2022-11-14T21:02:13.122Z,11.03
2022-11-14T21:04:59.306Z,11.10
2022-11-14T21:07:44.738Z,11.39
2022-11-14T21:10:47.797Z,11.17
2022-11-14T21:13:56.368Z,11.09
2022-11-14T21:16:41.824Z,11.22
2022-11-14T21:19:29.221Z,11.58
2022-11-14T21:22:14.756Z,11.23
2022-11-14T21:25:01.744Z,11.16
2022-11-14T21:27:46.958Z,11.28
2022-11-14T21:30:32.872Z,11.32
2022-11-14T21:33:18.193Z,11.22
2022-11-14T21:36:37.659Z,11.38
2022-11-14T21:39:16.863Z,11.34
2022-11-14T21:42:02.955Z,11.30
2022-11-14T21:44:48.120Z,11.29
2022-11-14T21:47:33.637Z,11.28
2022-11-14T21:50:18.876Z,11.37
2022-11-14T21:53:15.612Z,11.23
2022-11-14T21:56:12.810Z,11.33
2022-11-14T21:59:15.311Z,11.42
2022-11-14T22:02:21.450Z,11.20
2022-11-14T22:05:06.940Z,11.34
2022-11-14T22:07:52.093Z,11.39
2022-11-14T22:10:37.210Z,11.50
2022-11-14T22:13:22.505Z,11.84
2022-11-14T22:16:09.126Z,11.34
2022-11-14T22:18:56.299Z,11.23
2022-11-14T22:21:43.565Z,11.31
2022-11-14T22:24:28.948Z,11.50
2022-11-14T22:27:14.153Z,11.46
2022-11-14T22:29:59.246Z,11.61
2022-11-14T22:32:44.755Z,11.44
2022-11-14T22:35:37.578Z,11.62
2022-11-14T22:38:22.927Z,11.70
2022-11-14T22:41:12.425Z,11.55
2022-11-14T22:43:58.593Z,11.54
2022-11-14T22:46:44.328Z,11.48
2022-11-14T22:49:29.877Z,11.28
2022-11-14T22:52:15.462Z,11.34
2022-11-14T22:55:01.197Z,11.35
2022-11-14T22:57:47.753Z,11.38
2022-11-14T23:00:34.219Z,11.38
2022-11-14T23:03:20.865Z,11.41
2022-11-14T23:06:11.108Z,11.28
2022-11-14T23:08:56.762Z,11.51
2022-11-14T23:11:42.426Z,11.15
2022-11-14T23:14:27.578Z,11.16
2022-11-14T23:17:12.970Z,11.22
2022-11-14T23:19:58.195Z,11.09
2022-11-14T23:22:43.447Z,11.13
2022-11-14T23:25:28.994Z,11.31
2022-11-14T23:28:14.389Z,11.37
2022-11-14T23:31:01.952Z,11.36
2022-11-14T23:33:53.017Z,11.42
2022-11-14T23:36:38.198Z,11.59
2022-11-14T23:39:23.310Z,11.39
2022-11-14T23:42:08.639Z,11.33
2022-11-14T23:44:54.059Z,11.48
2022-11-14T23:47:39.465Z,11.49
2022-11-14T23:50:25.015Z,11.89
2022-11-14T23:53:11.516Z,11.54
2022-11-14T23:55:59.443Z,11.79
2022-11-14T23:58:44.683Z,11.58
